»·PEaware :: TCMSM KSNA-KBUR

TCMSM :: KSNA-KBUR

FLIGHT INFORMATION

Flight Status: Arrived
Operator: Unknown
More flights by this operator :: More flights under this callsign
Pilot: Derin Hakan K. (22511)
Aircraft: Diamond DA-40
(DA40)
More flights by this aircraft type
Origin: KSNA John Wayne-Orange Co
United States
Destination: KBUR Bob Hope-Burbank
United States
More flights between these airports :: More routes between these airports
Route: +SLI V23 POPPR SMO125 SMO SMO311 SILEX+
File this flight plan on PilotEdge
Remarks:
Altitude:
(Current/Filed)
4,000ft
Speed:
(Current/Filed)
125kts
Departed: 30-Nov-20 09:33 AM
Arrived: 30-Nov-20 10:07 AM
Distance/Time
Traveled:
0nm/0:33
Distance/Time
To Go:
Arrived

Flight Plot

Page will automatically refresh every two minutes.


Map Options




Map Legend


Flown Route
Filed Route
Departure Airport
Arrival Airport
Navaid (VOR, NDB)
Fix

Horizontal Profiles

Position Reports

Time Latitude Longitude Heading Altitude Ground
Speed
30-Nov-20 09:20 33.676153 -117.870775 357 53ft 0kts
30-Nov-20 09:21 33.676153 -117.870775 357 53ft 0kts
30-Nov-20 09:22 33.676153 -117.870775 357 53ft 0kts
30-Nov-20 09:23 33.676153 -117.870775 357 53ft 0kts
30-Nov-20 09:24 33.676153 -117.870775 357 53ft 0kts
30-Nov-20 09:25 33.676153 -117.870775 357 53ft 0kts
30-Nov-20 09:26 33.676153 -117.870775 357 53ft 0kts
30-Nov-20 09:27 33.676153 -117.870775 357 53ft 0kts
30-Nov-20 09:28 33.676153 -117.870775 357 53ft 0kts
30-Nov-20 09:29 33.676153 -117.870775 357 53ft 0kts
30-Nov-20 09:30 33.678515 -117.868571 31 50ft 16kts
30-Nov-20 09:31 33.681265 -117.866562 111 43ft 0kts
30-Nov-20 09:32 33.678403 -117.867152 207 51ft 54kts
30-Nov-20 09:33 33.660032 -117.881561 227 401ft 89kts
30-Nov-20 09:34 33.644186 -117.905278 233 1029ft 90kts
30-Nov-20 09:35 33.628822 -117.929603 233 1627ft 95kts
30-Nov-20 09:36 33.616848 -117.956385 294 2248ft 96kts
30-Nov-20 09:37 33.635585 -117.973936 331 2819ft 97kts
30-Nov-20 09:38 33.659972 -117.988369 333 3457ft 98kts
30-Nov-20 09:39 33.685447 -118.003050 333 3956ft 113kts
30-Nov-20 09:40 33.715616 -118.020372 333 3994ft 122kts
30-Nov-20 09:41 33.740083 -118.047788 301 3999ft 122kts
30-Nov-20 09:42 33.756467 -118.083607 297 4000ft 122kts
30-Nov-20 09:43 33.771781 -118.118457 297 3999ft 123kts
30-Nov-20 09:44 33.787663 -118.154722 297 3999ft 122kts
30-Nov-20 09:45 33.802575 -118.189081 296 4000ft 123kts
30-Nov-20 09:46 33.816244 -118.221564 296 3999ft 123kts
30-Nov-20 09:47 33.829517 -118.253764 294 3999ft 122kts
30-Nov-20 09:48 33.843443 -118.290296 306 3999ft 122kts
30-Nov-20 09:49 33.870240 -118.315784 323 4000ft 123kts
30-Nov-20 09:50 33.896562 -118.342229 319 3999ft 123kts
30-Nov-20 09:51 33.922882 -118.368596 319 4000ft 123kts
30-Nov-20 09:52 33.946310 -118.392175 319 4000ft 123kts
30-Nov-20 09:53 33.972617 -118.418718 319 4000ft 123kts
30-Nov-20 09:54 33.998887 -118.445239 319 3999ft 123kts
30-Nov-20 09:55 34.025750 -118.470694 326 4000ft 123kts
30-Nov-20 09:56 34.054929 -118.492232 328 4000ft 123kts
30-Nov-20 09:57 34.084147 -118.514069 327 4002ft 124kts
30-Nov-20 09:58 34.113228 -118.536343 325 3997ft 123kts
30-Nov-20 09:59 34.145168 -118.538799 19 4000ft 121kts
30-Nov-20 10:00 34.176085 -118.523087 23 3998ft 120kts
30-Nov-20 10:01 34.200597 -118.499303 89 3614ft 114kts
30-Nov-20 10:02 34.198958 -118.459675 91 2252ft 109kts
30-Nov-20 10:03 34.198759 -118.426649 90 1846ft 99kts
30-Nov-20 10:04 34.198133 -118.395136 89 1269ft 86kts
30-Nov-20 10:05 34.197869 -118.367102 90 730ft 68kts
30-Nov-20 10:06 34.196992 -118.360293 221 715ft 0kts
30-Nov-20 10:07 34.196841 -118.362024 270 718ft 9kts
30-Nov-20 10:08 34.196030 -118.362610 178 720ft 3kts
30-Nov-20 10:09 34.195876 -118.362597 175 720ft 0kts
30-Nov-20 10:10 34.195876 -118.362597 175 720ft 0kts
30-Nov-20 10:14 33.676153 -117.870775 357 53ft 0kts
30-Nov-20 10:15 33.676153 -117.870775 357 53ft 0kts
30-Nov-20 10:16 33.676153 -117.870775 357 53ft 0kts
30-Nov-20 10:17 33.676153 -117.870775 357 53ft 0kts
30-Nov-20 10:18 33.676153 -117.870775 357 53ft 0kts
30-Nov-20 10:19 33.678544 -117.868532 27 50ft 18kts
30-Nov-20 10:20 33.681215 -117.866448 111 43ft 0kts

Navigation Log

Ident Type
Flight plan parsing failed, navigation log unavailable